الصفحة الرئيسية
METAR-TAF:

METAR-TAF

مطار :

مطار جربة جرجيس الدولي

جربة, تونس

دائرة عرض: 33-52N, خط طول: 010-46E, ارتفاع: 3 متر

مراقبة الطقس الحالي

تاريخ ووقت الإصدار 28 دقيقة قبل الساعة 21:00UTC
ريح 5 عقدة من الشرق
درجة الحرارة 21°درجة مئوية
الرطوبة 73%
ضغط 1021 hPa
الرؤية 10 كم أو أكثر
غيوم قليلة على ارتفاع 2000 قدم
غيوم متفرقة على ارتفاع 2600 قدم

METAR: DTTJ 252100Z 09005KT 9999 FEW020 SCT026 21/16 Q1021 NOSIG

زمن: 22:28 (21:28 UTC)

توقعات

تاريخ ووقت الإصدار 4ساعات و 28 دقيقة قبل الساعة 17:00UTC
التوقعات صالحة من25 الساعة 18 UTC إلى 26 الساعة 18 UTC
ريح 10 عقدة من الشرق
الرؤية 10 كم أو أكثر
غيوم متفرقة على ارتفاع 2600 قدم

TAF: DTTJ 251700Z 2518/2618 09010KT 9999 SCT026

أرصاد الطقس والتوقعات من أكثر من 4000 مطار (تقارير الطقس للمطار METAR والتنبؤ بالطقس بالمطارTAF).

المحطات المتاحة هي النقط الصفراء والحمراء على الخريطة.

حرك المؤشر فوق النقطة لمعرفة اسم المحطة.

ثم انقر لمعرفة أرصاد وتوقعات الطقس.

لتغيير الخارطة: اضغط على الأزرار الخضراء مع رمز الصليب الأسود للتكبير. على الزر الأخضر مع شرطة للتصغير، أو على الأسهم الخضراء للخرائط المجاورة.


METAR-TAF: